createdAt,value
2023-04-12T00:02:01.939Z,100.00
2023-04-12T00:04:30.491Z,100.00
2023-04-12T00:07:01.183Z,100.00
2023-04-12T00:09:30.605Z,100.00
2023-04-12T00:11:59.920Z,100.00
2023-04-12T00:14:28.390Z,100.00
2023-04-12T00:16:56.666Z,100.00
2023-04-12T00:19:27.922Z,100.00
2023-04-12T00:21:56.910Z,100.00
2023-04-12T00:24:26.311Z,100.00
2023-04-12T00:26:55.208Z,100.00
2023-04-12T00:29:23.397Z,100.00
2023-04-12T00:31:52.070Z,100.00
2023-04-12T00:34:20.753Z,100.00
2023-04-12T00:36:49.029Z,100.00
2023-04-12T00:39:17.213Z,100.00
2023-04-12T00:41:45.788Z,100.00
2023-04-12T00:44:14.676Z,100.00
2023-04-12T00:46:43.497Z,100.00
2023-04-12T00:49:12.919Z,100.00
2023-04-12T00:51:42.095Z,100.00
2023-04-12T00:54:15.155Z,100.00
2023-04-12T00:56:45.006Z,100.00
2023-04-12T00:59:13.766Z,100.00
2023-04-12T01:01:42.391Z,100.00
2023-04-12T01:04:14.188Z,100.00
2023-04-12T01:07:10.330Z,100.00
2023-04-12T01:10:08.609Z,100.00
2023-04-12T01:12:50.402Z,100.00
2023-04-12T01:15:19.505Z,100.00
2023-04-12T01:18:15.012Z,100.00
2023-04-12T01:21:08.164Z,100.00
2023-04-12T01:23:40.240Z,100.00
2023-04-12T01:26:11.669Z,100.00
2023-04-12T01:28:43.972Z,100.00
2023-04-12T01:31:14.308Z,100.00
2023-04-12T01:33:45.512Z,100.00
2023-04-12T01:36:17.168Z,100.00
2023-04-12T01:38:46.884Z,100.00
2023-04-12T01:41:16.094Z,100.00
2023-04-12T01:43:47.551Z,100.00
2023-04-12T01:46:19.355Z,100.00
2023-04-12T01:48:53.087Z,100.00
2023-04-12T01:51:33.687Z,100.00
2023-04-12T01:54:22.656Z,100.00
2023-04-12T01:56:57.963Z,100.00
2023-04-12T01:59:34.924Z,100.00
2023-04-12T02:02:05.020Z,100.00
2023-04-12T02:04:35.958Z,100.00
2023-04-12T02:07:04.818Z,100.00
2023-04-12T02:09:39.781Z,100.00
2023-04-12T02:12:09.209Z,100.00
2023-04-12T02:14:37.748Z,100.00
2023-04-12T02:17:06.111Z,100.00
2023-04-12T02:19:34.488Z,100.00
2023-04-12T02:22:04.631Z,100.00
2023-04-12T02:24:34.004Z,100.00
2023-04-12T02:27:02.482Z,100.00
2023-04-12T02:29:31.490Z,100.00
2023-04-12T02:31:59.865Z,100.00
2023-04-12T02:34:34.303Z,100.00
2023-04-12T02:37:13.795Z,100.00
2023-04-12T02:39:42.222Z,100.00
2023-04-12T02:42:11.100Z,100.00
2023-04-12T02:44:40.668Z,100.00
2023-04-12T02:47:15.022Z,100.00
2023-04-12T02:49:46.518Z,100.00
2023-04-12T02:52:17.009Z,100.00
2023-04-12T02:55:06.174Z,100.00
2023-04-12T02:57:34.856Z,100.00
2023-04-12T03:00:12.486Z,100.00
2023-04-12T03:02:45.146Z,100.00
2023-04-12T03:05:19.968Z,100.00
2023-04-12T03:07:49.285Z,100.00
2023-04-12T03:10:20.610Z,100.00
2023-04-12T03:12:54.242Z,100.00
2023-04-12T03:15:24.838Z,100.00
2023-04-12T03:17:54.186Z,100.00
2023-04-12T03:20:25.389Z,100.00
2023-04-12T03:23:01.791Z,100.00
2023-04-12T03:25:31.466Z,100.00
2023-04-12T03:28:07.459Z,100.00
2023-04-12T03:30:47.290Z,100.00
2023-04-12T03:33:18.108Z,100.00
2023-04-12T03:35:47.048Z,100.00
2023-04-12T03:38:16.000Z,100.00
2023-04-12T03:40:44.580Z,100.00
2023-04-12T03:43:13.163Z,100.00
2023-04-12T03:45:41.434Z,100.00
2023-04-12T03:48:12.095Z,100.00
2023-04-12T03:50:48.642Z,100.00
2023-04-12T03:53:22.137Z,100.00
2023-04-12T03:55:52.052Z,100.00
2023-04-12T03:58:21.048Z,100.00
2023-04-12T04:00:49.858Z,100.00
2023-04-12T04:03:18.907Z,100.00
2023-04-12T04:05:59.922Z,100.00
2023-04-12T04:08:29.939Z,100.00
2023-04-12T04:10:59.469Z,100.00
2023-04-12T04:13:32.420Z,100.00
2023-04-12T04:16:06.546Z,100.00
2023-04-12T04:18:36.204Z,100.00
2023-04-12T04:21:07.663Z,100.00
2023-04-12T04:23:40.170Z,100.00
2023-04-12T04:26:12.611Z,100.00
2023-04-12T04:28:50.516Z,100.00
2023-04-12T04:31:22.501Z,100.00
2023-04-12T04:33:51.608Z,100.00
2023-04-12T04:36:22.953Z,100.00
2023-04-12T04:38:54.918Z,100.00
2023-04-12T04:41:41.563Z,100.00
2023-04-12T04:44:25.986Z,100.00
2023-04-12T04:46:58.151Z,100.00
2023-04-12T04:49:26.432Z,100.00
2023-04-12T04:51:56.545Z,100.00
2023-04-12T04:54:28.920Z,100.00
2023-04-12T04:56:57.510Z,100.00
2023-04-12T04:59:26.394Z,100.00
2023-04-12T05:01:57.645Z,100.00
2023-04-12T05:04:26.150Z,100.00
2023-04-12T05:06:55.120Z,100.00
2023-04-12T05:09:25.747Z,100.00
2023-04-12T05:11:57.408Z,100.00
2023-04-12T05:14:41.340Z,100.00
2023-04-12T05:17:13.612Z,100.00
2023-04-12T05:19:47.460Z,100.00
2023-04-12T05:22:20.460Z,100.00
2023-04-12T05:24:49.825Z,100.00
2023-04-12T05:27:19.317Z,100.00
2023-04-12T05:29:48.546Z,100.00
2023-04-12T05:32:18.666Z,100.00
2023-04-12T05:34:48.241Z,100.00
2023-04-12T05:37:17.029Z,100.00
2023-04-12T05:39:45.207Z,100.00
2023-04-12T05:42:14.426Z,100.00
2023-04-12T05:44:46.107Z,100.00
2023-04-12T05:47:15.775Z,100.00
2023-04-12T05:49:44.265Z,100.00
2023-04-12T05:52:13.354Z,100.00
2023-04-12T05:54:42.139Z,100.00
2023-04-12T05:57:14.104Z,100.00
2023-04-12T05:59:43.819Z,100.00
2023-04-12T06:02:12.603Z,100.00
2023-04-12T06:04:50.325Z,100.00
2023-04-12T06:07:21.481Z,100.00
2023-04-12T06:09:50.159Z,100.00
2023-04-12T06:12:19.538Z,100.00
2023-04-12T06:14:48.228Z,100.00
2023-04-12T06:17:16.504Z,100.00
2023-04-12T06:19:45.294Z,100.00
2023-04-12T06:22:13.771Z,100.00
2023-04-12T06:24:42.564Z,100.00
2023-04-12T06:27:12.285Z,100.00
2023-04-12T06:29:41.216Z,100.00
2023-04-12T06:32:09.846Z,100.00
2023-04-12T06:34:38.020Z,100.00
2023-04-12T06:37:13.051Z,100.00
2023-04-12T06:39:41.316Z,100.00
2023-04-12T06:42:09.503Z,100.00
2023-04-12T06:44:41.064Z,100.00
2023-04-12T06:47:09.716Z,100.00
2023-04-12T06:49:39.145Z,100.00
2023-04-12T06:52:07.518Z,100.00
2023-04-12T06:54:39.868Z,100.00
2023-04-12T06:57:11.752Z,100.00
2023-04-12T06:59:40.280Z,100.00
2023-04-12T07:02:08.937Z,100.00
2023-04-12T07:04:37.614Z,100.00
2023-04-12T07:07:06.709Z,100.00
2023-04-12T07:09:34.876Z,100.00
2023-04-12T07:12:03.302Z,100.00
2023-04-12T07:14:31.762Z,100.00
2023-04-12T07:17:00.015Z,100.00
2023-04-12T07:19:29.935Z,100.00
2023-04-12T07:21:58.520Z,100.00
2023-04-12T07:24:26.795Z,100.00
2023-04-12T07:26:55.480Z,100.00
2023-04-12T07:29:23.656Z,100.00
2023-04-12T07:31:52.136Z,100.00
2023-04-12T07:34:20.349Z,100.00
2023-04-12T07:36:48.587Z,100.00
2023-04-12T07:39:18.069Z,100.00
2023-04-12T07:41:46.796Z,100.00
2023-04-12T07:44:14.954Z,100.00
2023-04-12T07:46:43.338Z,100.00
2023-04-12T07:49:11.916Z,100.00
2023-04-12T07:51:40.711Z,100.00
2023-04-12T07:54:08.878Z,100.00
2023-04-12T07:56:37.156Z,100.00
2023-04-12T07:59:06.253Z,100.00
2023-04-12T08:01:34.739Z,100.00
2023-04-12T08:04:03.345Z,100.00
2023-04-12T08:06:34.488Z,100.00
2023-04-12T08:09:02.848Z,100.00
2023-04-12T08:11:31.225Z,100.00
2023-04-12T08:13:59.694Z,100.00
2023-04-12T08:16:28.746Z,100.00
2023-04-12T08:18:58.407Z,100.00
2023-04-12T08:21:27.808Z,100.00
2023-04-12T08:23:57.141Z,100.00
2023-04-12T08:26:26.835Z,100.00
2023-04-12T08:28:55.096Z,100.00
2023-04-12T08:31:23.924Z,100.00
2023-04-12T08:33:52.168Z,100.00
2023-04-12T08:36:21.050Z,100.00
2023-04-12T08:38:52.711Z,100.00
2023-04-12T08:41:21.703Z,100.00
2023-04-12T08:43:51.496Z,100.00
2023-04-12T08:46:20.081Z,100.00
2023-04-12T08:48:50.769Z,100.00
2023-04-12T08:51:24.213Z,100.00
2023-04-12T08:53:54.361Z,100.00
2023-04-12T08:56:23.694Z,100.00
2023-04-12T08:58:53.156Z,100.00
2023-04-12T09:01:22.030Z,100.00
2023-04-12T09:03:50.788Z,100.00
2023-04-12T09:06:19.628Z,100.00
2023-04-12T09:08:55.786Z,100.00
2023-04-12T09:11:28.900Z,100.00
2023-04-12T09:13:58.944Z,100.00
2023-04-12T09:16:35.066Z,100.00
2023-04-12T09:19:03.846Z,100.00
2023-04-12T09:21:37.031Z,100.00
2023-04-12T09:24:11.801Z,100.00
2023-04-12T09:26:42.483Z,100.00
2023-04-12T09:29:27.400Z,100.00
2023-04-12T09:32:06.195Z,100.00
2023-04-12T09:34:36.818Z,100.00
2023-04-12T09:37:16.549Z,100.00
2023-04-12T09:39:44.742Z,100.00
2023-04-12T09:42:29.748Z,100.00
2023-04-12T09:45:03.112Z,100.00
2023-04-12T09:47:39.710Z,100.00
2023-04-12T09:50:10.000Z,100.00
2023-04-12T09:52:39.360Z,100.00
2023-04-12T09:55:11.569Z,100.00
2023-04-12T09:57:44.877Z,100.00
2023-04-12T10:00:18.096Z,100.00
2023-04-12T10:02:51.477Z,100.00
2023-04-12T10:05:23.684Z,100.00
2023-04-12T10:07:53.241Z,100.00
2023-04-12T10:10:21.917Z,100.00
2023-04-12T10:12:50.967Z,100.00
2023-04-12T10:15:21.374Z,100.00
2023-04-12T10:17:57.690Z,100.00
2023-04-12T10:20:28.520Z,100.00
2023-04-12T10:23:01.624Z,100.00
2023-04-12T10:25:32.046Z,100.00
2023-04-12T10:28:23.176Z,100.00
2023-04-12T10:30:54.864Z,100.00
2023-04-12T10:33:27.881Z,100.00
2023-04-12T10:36:08.831Z,99.18
2023-04-12T10:39:10.332Z,99.98
2023-04-12T10:41:38.406Z,98.48
2023-04-12T10:44:28.922Z,97.95
2023-04-12T10:46:57.164Z,97.39
2023-04-12T10:49:27.561Z,96.95
2023-04-12T10:52:16.192Z,95.65
2023-04-12T10:54:44.596Z,96.07
2023-04-12T10:57:47.366Z,96.81
2023-04-12T11:00:16.653Z,93.74
2023-04-12T11:03:09.862Z,94.06
2023-04-12T11:06:09.128Z,93.64
2023-04-12T11:09:21.941Z,93.76
2023-04-12T11:11:50.663Z,93.00
2023-04-12T11:14:27.593Z,92.95
2023-04-12T11:17:17.039Z,93.23
2023-04-12T11:19:51.036Z,93.40
2023-04-12T11:22:21.688Z,94.72
2023-04-12T11:24:52.450Z,95.80
2023-04-12T11:27:23.490Z,95.23
2023-04-12T11:29:57.949Z,95.65
2023-04-12T11:32:28.916Z,97.09
2023-04-12T11:34:58.368Z,97.66
2023-04-12T11:37:31.444Z,95.33
2023-04-12T11:40:00.874Z,94.99
2023-04-12T11:42:29.680Z,95.62
2023-04-12T11:45:02.409Z,96.07
2023-04-12T11:47:34.680Z,97.15
2023-04-12T11:50:03.165Z,96.28
2023-04-12T11:52:33.692Z,95.67
2023-04-12T11:55:11.339Z,94.01
2023-04-12T11:57:39.788Z,95.53
2023-04-12T12:00:08.664Z,93.47
2023-04-12T12:02:55.914Z,94.06
2023-04-12T12:05:37.450Z,91.57
2023-04-12T12:08:08.004Z,93.06
2023-04-12T12:10:49.226Z,92.69
2023-04-12T12:13:24.126Z,90.93
2023-04-12T12:15:53.378Z,91.45
2023-04-12T12:18:27.560Z,91.73
2023-04-12T12:20:56.011Z,91.86
2023-04-12T12:23:33.800Z,91.22
2023-04-12T12:26:18.441Z,91.99
2023-04-12T12:28:55.781Z,92.51
2023-04-12T12:31:28.118Z,92.77
2023-04-12T12:34:04.294Z,92.10
2023-04-12T12:36:38.822Z,91.82
2023-04-12T12:39:12.920Z,92.16
2023-04-12T12:41:41.691Z,93.04
2023-04-12T12:44:12.451Z,91.80
2023-04-12T12:46:53.211Z,90.78
2023-04-12T12:49:22.258Z,90.89
2023-04-12T12:51:50.872Z,89.06
2023-04-12T12:54:36.075Z,90.30
2023-04-12T12:57:07.520Z,87.61
2023-04-12T12:59:35.817Z,85.97
2023-04-12T13:02:04.228Z,88.88
2023-04-12T13:04:33.050Z,88.87
2023-04-12T13:07:01.260Z,87.30
2023-04-12T13:09:31.668Z,85.89
2023-04-12T13:11:59.845Z,85.01
2023-04-12T13:14:27.918Z,82.36
2023-04-12T13:16:56.900Z,82.23
2023-04-12T13:19:25.418Z,81.72
2023-04-12T13:21:53.666Z,81.42
2023-04-12T13:24:24.304Z,79.68
2023-04-12T13:26:52.886Z,76.94
2023-04-12T13:29:21.262Z,76.69
2023-04-12T13:31:49.683Z,75.32
2023-04-12T13:34:18.434Z,76.43
2023-04-12T13:36:46.708Z,76.85
2023-04-12T13:39:15.192Z,76.02
2023-04-12T13:41:43.648Z,76.22
2023-04-12T13:44:11.745Z,77.13
2023-04-12T13:46:40.024Z,77.84
2023-04-12T13:49:08.528Z,79.07
2023-04-12T13:51:37.211Z,79.83
2023-04-12T13:54:05.677Z,80.60
2023-04-12T13:56:34.052Z,80.78
2023-04-12T13:59:03.882Z,81.01
2023-04-12T14:01:32.058Z,80.82
2023-04-12T14:04:00.221Z,80.98
2023-04-12T14:06:29.620Z,81.37
2023-04-12T14:08:58.331Z,82.14
2023-04-12T14:11:26.989Z,81.59
2023-04-12T14:13:55.469Z,80.34
2023-04-12T14:16:23.847Z,79.49
2023-04-12T14:18:52.636Z,78.47
2023-04-12T14:21:22.962Z,77.69
2023-04-12T14:23:51.653Z,77.99
2023-04-12T14:26:19.821Z,78.17
2023-04-12T14:28:50.219Z,78.23
2023-04-12T14:31:18.933Z,78.58
2023-04-12T14:33:47.626Z,79.16
2023-04-12T14:36:16.103Z,80.20
2023-04-12T14:38:45.297Z,80.74
2023-04-12T14:41:14.195Z,81.22
2023-04-12T14:43:43.094Z,81.91
2023-04-12T14:46:12.058Z,81.83
2023-04-12T14:48:41.685Z,82.16
2023-04-12T14:51:09.974Z,82.40
2023-04-12T14:53:38.234Z,82.34
2023-04-12T14:56:17.151Z,82.76
2023-04-12T14:58:45.367Z,82.95
2023-04-12T15:01:14.331Z,83.09
2023-04-12T15:03:44.349Z,83.27
2023-04-12T15:06:13.750Z,83.83
2023-04-12T15:08:42.130Z,83.62
2023-04-12T15:11:11.899Z,83.71
2023-04-12T15:13:41.771Z,83.53
2023-04-12T15:16:12.527Z,83.94
2023-04-12T15:18:41.979Z,84.64
2023-04-12T15:21:10.958Z,84.77
2023-04-12T15:23:41.913Z,84.76
2023-04-12T15:26:10.735Z,84.87
2023-04-12T15:28:39.104Z,85.01
2023-04-12T15:31:08.747Z,85.81
2023-04-12T15:33:38.026Z,86.40
2023-04-12T15:36:07.118Z,86.97
2023-04-12T15:38:42.612Z,87.57
2023-04-12T15:41:11.436Z,88.19
2023-04-12T15:43:42.132Z,88.33
2023-04-12T15:46:13.924Z,88.27
2023-04-12T15:48:42.313Z,88.26
2023-04-12T15:51:10.697Z,88.43
2023-04-12T15:53:40.811Z,88.57
2023-04-12T15:56:10.010Z,88.89
2023-04-12T15:58:38.695Z,89.37
2023-04-12T16:01:07.388Z,89.88
2023-04-12T16:03:37.187Z,90.15
2023-04-12T16:06:06.289Z,90.25
2023-04-12T16:08:34.367Z,91.29
2023-04-12T16:11:03.472Z,91.48
2023-04-12T16:13:31.950Z,91.91
2023-04-12T16:16:00.761Z,91.95
2023-04-12T16:18:31.274Z,92.28
2023-04-12T16:21:00.232Z,92.81
2023-04-12T16:23:31.399Z,93.03
2023-04-12T16:26:00.331Z,93.14
2023-04-12T16:28:29.898Z,94.04
2023-04-12T16:30:59.170Z,94.70
2023-04-12T16:33:28.289Z,94.77
2023-04-12T16:35:57.080Z,95.35
2023-04-12T16:38:27.816Z,95.32
2023-04-12T16:40:57.220Z,95.89
2023-04-12T16:43:28.106Z,96.54
2023-04-12T16:45:57.048Z,96.85
2023-04-12T16:48:27.474Z,98.08
2023-04-12T16:50:55.960Z,98.97
2023-04-12T16:53:24.886Z,99.15
2023-04-12T16:55:56.729Z,99.65
2023-04-12T16:58:26.651Z,99.44
2023-04-12T17:00:56.232Z,99.68
2023-04-12T17:03:27.885Z,99.98
2023-04-12T17:05:56.475Z,100.00
2023-04-12T17:08:24.959Z,99.99
2023-04-12T17:10:54.569Z,100.00
2023-04-12T17:13:22.955Z,100.00
2023-04-12T17:15:51.305Z,100.00
2023-04-12T17:18:20.962Z,100.00
2023-04-12T17:20:49.095Z,100.00
2023-04-12T17:23:19.118Z,100.00
2023-04-12T17:25:47.598Z,100.00
2023-04-12T17:28:17.220Z,100.00
2023-04-12T17:30:46.771Z,100.00
2023-04-12T17:33:18.257Z,100.00
2023-04-12T17:35:46.744Z,100.00
2023-04-12T17:38:14.997Z,100.00
2023-04-12T17:40:43.400Z,100.00
2023-04-12T17:43:11.779Z,100.00
2023-04-12T17:45:40.201Z,100.00
2023-04-12T17:48:10.995Z,100.00
2023-04-12T17:50:39.269Z,100.00
2023-04-12T17:53:08.161Z,100.00
2023-04-12T17:55:36.553Z,100.00
2023-04-12T17:58:04.925Z,100.00
2023-04-12T18:00:35.147Z,100.00
2023-04-12T18:03:04.154Z,100.00
2023-04-12T18:05:35.593Z,100.00
2023-04-12T18:08:03.970Z,100.00
2023-04-12T18:10:32.353Z,100.00
2023-04-12T18:13:01.071Z,100.00
2023-04-12T18:15:32.923Z,100.00
2023-04-12T18:18:03.902Z,100.00
2023-04-12T18:20:32.338Z,100.00
2023-04-12T18:23:00.804Z,100.00
2023-04-12T18:25:31.022Z,100.00
2023-04-12T18:27:59.836Z,100.00
2023-04-12T18:30:30.562Z,100.00
2023-04-12T18:33:00.953Z,100.00
2023-04-12T18:35:31.705Z,100.00
2023-04-12T18:38:00.187Z,100.00
2023-04-12T18:40:31.133Z,100.00
2023-04-12T18:42:59.913Z,100.00
2023-04-12T18:45:31.365Z,100.00
2023-04-12T18:48:00.716Z,100.00
2023-04-12T18:50:29.466Z,100.00
2023-04-12T18:52:58.141Z,100.00
2023-04-12T18:55:26.426Z,100.00
2023-04-12T18:57:54.798Z,100.00
2023-04-12T19:00:23.436Z,100.00
2023-04-12T19:02:51.892Z,100.00
2023-04-12T19:05:21.849Z,100.00
2023-04-12T19:07:51.182Z,100.00
2023-04-12T19:10:24.397Z,100.00
2023-04-12T19:12:52.869Z,100.00
2023-04-12T19:15:21.952Z,100.00
2023-04-12T19:17:51.189Z,100.00
2023-04-12T19:20:19.628Z,100.00
2023-04-12T19:22:47.912Z,100.00
2023-04-12T19:25:19.510Z,100.00
2023-04-12T19:27:48.302Z,100.00
2023-04-12T19:30:17.341Z,100.00
2023-04-12T19:32:45.758Z,100.00
2023-04-12T19:35:14.610Z,100.00
2023-04-12T19:37:42.890Z,100.00
2023-04-12T19:40:12.764Z,100.00
2023-04-12T19:42:42.258Z,100.00
2023-04-12T19:45:10.756Z,100.00
2023-04-12T19:47:45.132Z,100.00
2023-04-12T19:50:17.934Z,100.00
2023-04-12T19:52:48.116Z,100.00
2023-04-12T19:55:17.018Z,100.00
2023-04-12T19:57:46.307Z,100.00
2023-04-12T20:00:23.348Z,100.00
2023-04-12T20:02:54.352Z,100.00
2023-04-12T20:05:25.386Z,100.00
2023-04-12T20:07:56.211Z,100.00
2023-04-12T20:10:24.910Z,100.00
2023-04-12T20:12:53.509Z,100.00
2023-04-12T20:15:22.484Z,100.00
2023-04-12T20:17:52.217Z,100.00
2023-04-12T20:20:20.989Z,100.00
2023-04-12T20:22:52.941Z,100.00
2023-04-12T20:25:21.438Z,100.00
2023-04-12T20:27:52.516Z,100.00
2023-04-12T20:30:21.452Z,100.00
2023-04-12T20:32:55.027Z,100.00
2023-04-12T20:35:23.572Z,100.00
2023-04-12T20:37:52.222Z,100.00
2023-04-12T20:40:23.393Z,100.00
2023-04-12T20:42:52.355Z,100.00
2023-04-12T20:45:21.972Z,100.00
2023-04-12T20:47:51.191Z,100.00
2023-04-12T20:50:23.186Z,100.00
2023-04-12T20:52:52.428Z,100.00
2023-04-12T20:55:22.855Z,100.00
2023-04-12T20:57:50.925Z,100.00
2023-04-12T21:00:23.892Z,100.00
2023-04-12T21:02:52.544Z,100.00
2023-04-12T21:05:21.082Z,100.00
2023-04-12T21:07:49.255Z,100.00
2023-04-12T21:10:18.258Z,100.00
2023-04-12T21:12:47.346Z,100.00
2023-04-12T21:15:21.911Z,100.00
2023-04-12T21:17:52.465Z,100.00
2023-04-12T21:20:21.930Z,100.00
2023-04-12T21:22:52.024Z,100.00
2023-04-12T21:25:21.426Z,100.00
2023-04-12T21:27:50.011Z,100.00
2023-04-12T21:30:18.313Z,100.00
2023-04-12T21:32:47.339Z,100.00
2023-04-12T21:35:16.584Z,100.00
2023-04-12T21:37:44.872Z,100.00
2023-04-12T21:40:13.860Z,100.00
2023-04-12T21:42:42.278Z,100.00
2023-04-12T21:45:13.746Z,100.00
2023-04-12T21:47:42.707Z,100.00
2023-04-12T21:50:11.829Z,100.00
2023-04-12T21:52:41.309Z,100.00
2023-04-12T21:55:09.760Z,100.00
2023-04-12T21:57:37.939Z,100.00
2023-04-12T22:00:10.235Z,100.00
2023-04-12T22:02:41.768Z,100.00
2023-04-12T22:05:10.493Z,100.00
2023-04-12T22:07:41.617Z,100.00
2023-04-12T22:10:12.241Z,100.00
2023-04-12T22:12:40.936Z,100.00
2023-04-12T22:15:12.059Z,100.00
2023-04-12T22:17:41.394Z,100.00
2023-04-12T22:20:10.661Z,100.00
2023-04-12T22:22:40.165Z,100.00
2023-04-12T22:25:15.196Z,100.00
2023-04-12T22:27:46.675Z,100.00
2023-04-12T22:30:16.099Z,100.00
2023-04-12T22:32:44.885Z,100.00
2023-04-12T22:35:13.332Z,100.00
2023-04-12T22:37:43.654Z,100.00
2023-04-12T22:40:13.896Z,100.00
2023-04-12T22:42:48.702Z,100.00
2023-04-12T22:45:17.715Z,100.00
2023-04-12T22:47:46.439Z,100.00
2023-04-12T22:50:15.265Z,100.00
2023-04-12T22:52:43.744Z,100.00
2023-04-12T22:55:13.165Z,100.00
2023-04-12T22:57:42.140Z,100.00
2023-04-12T23:00:17.069Z,100.00
2023-04-12T23:02:46.778Z,100.00
2023-04-12T23:05:16.586Z,100.00
2023-04-12T23:07:45.177Z,100.00
2023-04-12T23:10:13.404Z,100.00
2023-04-12T23:12:41.673Z,100.00
2023-04-12T23:15:10.560Z,100.00
2023-04-12T23:17:38.640Z,100.00
2023-04-12T23:20:14.979Z,100.00
2023-04-12T23:22:57.883Z,100.00
2023-04-12T23:25:42.091Z,100.00
2023-04-12T23:28:14.344Z,100.00
2023-04-12T23:30:50.443Z,100.00
2023-04-12T23:33:20.661Z,100.00
2023-04-12T23:35:58.662Z,100.00
2023-04-12T23:38:32.421Z,100.00
2023-04-12T23:41:04.444Z,100.00
2023-04-12T23:43:37.391Z,100.00
2023-04-12T23:46:06.874Z,100.00
2023-04-12T23:48:35.946Z,100.00
2023-04-12T23:51:04.739Z,100.00
2023-04-12T23:53:33.115Z,100.00
2023-04-12T23:56:02.006Z,100.00
2023-04-12T23:58:30.698Z,100.00
